createdAt,value
2019-04-14T00:00:23.422Z,4.50
2019-04-14T00:02:57.631Z,4.50
2019-04-14T00:05:25.662Z,4.50
2019-04-14T00:07:53.823Z,4.50
2019-04-14T00:10:22.463Z,4.50
2019-04-14T00:12:51.311Z,4.40
2019-04-14T00:15:27.789Z,4.50
2019-04-14T00:17:47.997Z,4.50
2019-04-14T00:20:16.338Z,4.40
2019-04-14T00:22:44.616Z,4.30
2019-04-14T00:25:13.014Z,4.40
2019-04-14T00:27:41.006Z,4.40
2019-04-14T00:30:09.515Z,4.40
2019-04-14T00:32:45.124Z,4.40
2019-04-14T00:35:21.005Z,4.40
2019-04-14T00:38:13.046Z,4.30
2019-04-14T00:40:45.980Z,4.30
2019-04-14T00:43:31.001Z,4.30
2019-04-14T00:46:04.299Z,4.30
2019-04-14T00:48:32.019Z,4.20
2019-04-14T00:51:00.478Z,4.20
2019-04-14T00:53:27.888Z,4.20
2019-04-14T00:58:23.611Z,4.30
2019-04-14T01:00:51.775Z,4.30
2019-04-14T01:03:19.942Z,4.40
2019-04-14T01:05:48.189Z,4.30
2019-04-14T01:08:16.322Z,4.30
2019-04-14T01:10:43.678Z,4.30
2019-04-14T01:13:12.433Z,4.30
2019-04-14T01:15:52.389Z,4.30
2019-04-14T01:18:10.056Z,4.30
2019-04-14T01:20:38.434Z,4.30
2019-04-14T01:23:06.345Z,4.30
2019-04-14T01:25:34.640Z,4.30
2019-04-14T01:28:02.537Z,4.20
2019-04-14T01:30:30.612Z,4.20
2019-04-14T01:32:58.917Z,4.20
2019-04-14T01:35:27.102Z,4.20
2019-04-14T01:37:55.078Z,4.10
2019-04-14T01:40:22.834Z,4.20
2019-04-14T01:42:50.600Z,4.10
2019-04-14T01:45:18.613Z,4.20
2019-04-14T01:47:46.754Z,4.20
2019-04-14T01:50:14.884Z,4.20
2019-04-14T01:52:48.694Z,4.20
2019-04-14T01:55:23.073Z,4.20
2019-04-14T01:58:10.040Z,4.20
2019-04-14T02:00:57.574Z,4.10
2019-04-14T02:03:25.954Z,4.10
2019-04-14T02:05:53.916Z,4.10
2019-04-14T02:08:21.957Z,4.10
2019-04-14T02:10:49.917Z,4.20
2019-04-14T02:13:18.187Z,4.10
2019-04-14T02:15:46.490Z,4.20
2019-04-14T02:18:14.357Z,4.10
2019-04-14T02:20:42.607Z,4.20
2019-04-14T02:23:10.392Z,4.10
2019-04-14T02:25:38.239Z,4.10
2019-04-14T02:28:06.831Z,4.10
2019-04-14T02:30:41.709Z,4.00
2019-04-14T02:33:33.570Z,4.00
2019-04-14T02:36:08.215Z,4.00
2019-04-14T02:43:29.418Z,4.20
2019-04-14T02:48:48.009Z,4.00
2019-04-14T02:50:55.549Z,4.00
2019-04-14T02:53:23.782Z,4.00
2019-04-14T02:56:02.029Z,4.00
2019-04-14T02:58:29.092Z,4.00
2019-04-14T03:01:07.018Z,4.00
2019-04-14T03:03:27.716Z,4.00
2019-04-14T03:05:53.782Z,4.10
2019-04-14T03:08:25.270Z,4.10
2019-04-14T03:10:51.566Z,4.10
2019-04-14T03:15:53.625Z,4.10
2019-04-14T03:18:33.763Z,4.10
2019-04-14T03:21:21.693Z,4.00
2019-04-14T03:23:58.011Z,4.00
2019-04-14T03:26:50.246Z,4.10
2019-04-14T03:29:20.870Z,4.10
2019-04-14T03:31:59.541Z,4.10
2019-04-14T03:39:15.570Z,4.10
2019-04-14T03:41:45.110Z,4.10
2019-04-14T03:44:16.764Z,4.10
2019-04-14T03:46:53.118Z,4.10
2019-04-14T03:51:45.230Z,4.20
2019-04-14T03:54:03.310Z,4.10
2019-04-14T03:56:46.685Z,4.10
2019-04-14T03:59:15.176Z,4.10
2019-04-14T04:01:43.506Z,4.20
2019-04-14T04:04:11.842Z,4.20
2019-04-14T04:06:39.915Z,4.10
2019-04-14T04:09:08.348Z,4.00
2019-04-14T04:11:36.656Z,4.00
2019-04-14T04:14:05.161Z,3.90
2019-04-14T04:16:55.133Z,3.90
2019-04-14T04:19:42.613Z,3.90
2019-04-14T04:22:28.202Z,4.00
2019-04-14T04:25:05.076Z,3.90
2019-04-14T04:27:44.043Z,3.90
2019-04-14T04:30:16.527Z,3.90
2019-04-14T04:32:49.647Z,3.90
2019-04-14T04:35:45.750Z,3.90
2019-04-14T04:38:22.405Z,4.00
2019-04-14T04:40:50.713Z,4.00
2019-04-14T04:43:19.016Z,4.00
2019-04-14T04:45:47.290Z,4.00
2019-04-14T04:48:15.232Z,4.00
2019-04-14T04:50:43.142Z,4.00
2019-04-14T04:53:11.543Z,4.00
2019-04-14T04:55:39.514Z,3.90
2019-04-14T04:58:07.792Z,3.90
2019-04-14T05:00:35.347Z,3.90
2019-04-14T05:03:03.685Z,3.90
2019-04-14T05:06:06.752Z,3.90
2019-04-14T05:08:34.838Z,3.90
2019-04-14T05:11:16.546Z,4.00
2019-04-14T05:13:46.818Z,4.00
2019-04-14T05:16:14.922Z,4.10
2019-04-14T05:18:42.259Z,4.10
2019-04-14T05:21:10.391Z,4.10
2019-04-14T05:23:38.772Z,4.10
2019-04-14T05:26:07.073Z,4.10
2019-04-14T05:28:35.278Z,4.00
2019-04-14T05:31:03.365Z,3.90
2019-04-14T05:33:31.498Z,4.00
2019-04-14T05:35:59.891Z,4.00
2019-04-14T05:38:30.318Z,4.00
2019-04-14T05:40:56.448Z,4.00
2019-04-14T05:43:36.972Z,3.90
2019-04-14T05:45:52.852Z,3.90
2019-04-14T05:48:20.427Z,3.90
2019-04-14T05:50:48.973Z,4.00
2019-04-14T05:53:17.441Z,3.90
2019-04-14T05:55:45.933Z,4.00
2019-04-14T05:58:14.227Z,4.00
2019-04-14T06:00:46.274Z,4.00
2019-04-14T06:03:14.573Z,4.00
2019-04-14T06:05:42.844Z,4.00
2019-04-14T06:08:10.140Z,4.00
2019-04-14T06:10:37.375Z,4.10
2019-04-14T06:13:04.674Z,4.10
2019-04-14T06:15:31.996Z,4.10
2019-04-14T06:17:59.253Z,4.10
2019-04-14T06:20:26.497Z,4.10
2019-04-14T06:22:53.747Z,4.10
2019-04-14T06:25:20.995Z,4.10
2019-04-14T06:27:48.232Z,4.20
2019-04-14T06:30:29.760Z,4.20
2019-04-14T06:32:58.875Z,4.20
2019-04-14T06:35:49.892Z,4.30
2019-04-14T06:38:23.114Z,4.30
2019-04-14T06:40:57.646Z,4.30
2019-04-14T06:43:24.894Z,4.30
2019-04-14T06:45:52.126Z,4.30
2019-04-14T06:48:19.384Z,4.40
2019-04-14T06:50:46.683Z,4.50
2019-04-14T06:53:14.111Z,4.50
2019-04-14T06:55:41.362Z,4.50
2019-04-14T06:58:08.610Z,4.50
2019-04-14T07:00:35.839Z,4.50
2019-04-14T07:03:03.095Z,4.60
2019-04-14T07:05:30.308Z,4.60
2019-04-14T07:07:57.731Z,4.60
2019-04-14T07:10:25.143Z,4.60
2019-04-14T07:12:52.441Z,4.60
2019-04-14T07:15:19.585Z,4.70
2019-04-14T07:17:46.819Z,4.80
2019-04-14T07:20:14.084Z,4.80
2019-04-14T07:22:41.323Z,4.70
2019-04-14T07:25:08.557Z,4.70
2019-04-14T07:27:35.828Z,4.80
2019-04-14T07:30:39.012Z,4.90
2019-04-14T07:33:33.187Z,5.00
2019-04-14T07:36:19.941Z,4.90
2019-04-14T07:38:55.265Z,4.90
2019-04-14T07:41:30.684Z,4.90
2019-04-14T07:44:10.156Z,5.00
2019-04-14T07:46:58.339Z,5.20
2019-04-14T07:49:56.969Z,5.30
2019-04-14T07:52:35.490Z,5.40
2019-04-14T07:55:22.244Z,5.50
2019-04-14T07:58:15.031Z,5.60
2019-04-14T08:00:53.444Z,5.80
2019-04-14T08:03:33.164Z,5.90
2019-04-14T08:06:01.006Z,5.90
2019-04-14T08:08:28.547Z,5.90
2019-04-14T08:10:57.317Z,5.90
2019-04-14T08:13:24.760Z,6.00
2019-04-14T08:15:52.078Z,6.20
2019-04-14T08:18:19.487Z,6.50
2019-04-14T08:20:47.063Z,6.60
2019-04-14T08:23:14.288Z,6.70
2019-04-14T08:28:08.799Z,6.60
2019-04-14T08:30:36.064Z,6.50
2019-04-14T08:33:03.304Z,6.40
2019-04-14T08:35:30.573Z,6.40
2019-04-14T08:37:57.891Z,6.50
2019-04-14T08:40:25.259Z,6.60
2019-04-14T08:43:16.258Z,6.70
2019-04-14T08:46:04.952Z,6.80
2019-04-14T08:48:50.596Z,6.70
2019-04-14T08:51:28.125Z,6.50
2019-04-14T08:54:14.892Z,6.60
2019-04-14T08:56:50.371Z,6.80
2019-04-14T08:59:24.591Z,6.80
2019-04-14T09:02:10.911Z,6.80
2019-04-14T09:05:00.633Z,6.80
2019-04-14T09:07:33.844Z,6.70
2019-04-14T09:10:05.739Z,6.60
2019-04-14T09:12:35.457Z,6.30
2019-04-14T09:15:02.874Z,6.20
2019-04-14T09:17:30.268Z,6.10
2019-04-14T09:19:57.503Z,6.20
2019-04-14T09:22:24.756Z,6.30
2019-04-14T09:24:51.995Z,6.20
2019-04-14T09:27:19.303Z,6.30
2019-04-14T09:29:46.573Z,6.20
2019-04-14T09:32:14.141Z,6.10
2019-04-14T09:34:41.394Z,6.10
2019-04-14T09:37:08.651Z,6.20
2019-04-14T09:39:35.888Z,6.30
2019-04-14T09:42:03.169Z,6.30
2019-04-14T09:44:30.476Z,6.40
2019-04-14T09:46:58.664Z,6.70
2019-04-14T09:49:25.905Z,6.90
2019-04-14T09:51:53.201Z,7.10
2019-04-14T09:54:20.465Z,7.20
2019-04-14T09:56:47.725Z,7.30
2019-04-14T09:59:15.452Z,7.40
2019-04-14T10:01:42.846Z,7.70
2019-04-14T10:04:10.075Z,7.90
2019-04-14T10:06:37.319Z,7.90
2019-04-14T10:09:05.291Z,8.10
2019-04-14T10:11:32.525Z,8.20
2019-04-14T10:13:59.793Z,8.10
2019-04-14T10:16:27.075Z,8.10
2019-04-14T10:18:54.641Z,8.20
2019-04-14T10:21:22.140Z,8.20
2019-04-14T10:23:49.427Z,8.50
2019-04-14T10:26:16.679Z,8.60
2019-04-14T10:28:43.944Z,8.80
2019-04-14T10:31:11.217Z,8.90
2019-04-14T10:33:38.507Z,8.80
2019-04-14T10:36:05.775Z,8.80
2019-04-14T10:38:33.057Z,8.80
2019-04-14T10:41:00.480Z,9.00
2019-04-14T10:43:27.720Z,8.90
2019-04-14T10:45:54.947Z,9.00
2019-04-14T10:48:22.196Z,9.20
2019-04-14T10:50:49.480Z,9.10
2019-04-14T10:53:16.757Z,9.10
2019-04-14T10:55:43.992Z,9.30
2019-04-14T10:58:11.248Z,9.40
2019-04-14T11:00:38.516Z,9.40
2019-04-14T11:03:05.794Z,9.40
2019-04-14T11:05:42.160Z,9.50
2019-04-14T11:08:09.459Z,9.60
2019-04-14T11:10:36.753Z,9.70
2019-04-14T11:13:04.012Z,9.90
2019-04-14T11:15:31.704Z,10.10
2019-04-14T11:17:59.016Z,10.30
2019-04-14T11:20:26.287Z,10.50
2019-04-14T11:23:03.191Z,10.80
2019-04-14T11:25:22.777Z,11.20
2019-04-14T11:27:49.979Z,11.50
2019-04-14T11:30:19.705Z,11.70
2019-04-14T11:33:05.092Z,11.60
2019-04-14T11:35:36.110Z,11.50
2019-04-14T11:38:24.440Z,11.40
2019-04-14T11:40:54.453Z,10.90
2019-04-14T11:43:21.582Z,10.70
2019-04-14T11:45:48.876Z,11.00
2019-04-14T11:48:16.040Z,11.30
2019-04-14T11:50:42.952Z,11.10
2019-04-14T11:53:09.992Z,11.30
2019-04-14T11:55:36.896Z,11.20
2019-04-14T11:58:04.182Z,11.10
2019-04-14T12:00:44.230Z,11.10
2019-04-14T12:03:32.571Z,11.10
2019-04-14T12:06:13.489Z,11.10
2019-04-14T12:08:51.122Z,11.10
2019-04-14T12:11:18.360Z,11.00
2019-04-14T12:13:45.600Z,11.10
2019-04-14T12:16:12.753Z,11.20
2019-04-14T12:18:40.013Z,11.40
2019-04-14T12:21:07.229Z,11.50
2019-04-14T12:23:34.114Z,11.50
2019-04-14T12:26:05.591Z,11.40
2019-04-14T12:28:30.266Z,11.40
2019-04-14T12:30:57.658Z,11.50
2019-04-14T12:33:24.783Z,11.70
2019-04-14T12:35:52.063Z,11.90
2019-04-14T12:38:19.313Z,12.00
2019-04-14T12:40:47.339Z,12.10
2019-04-14T12:43:30.089Z,12.10
2019-04-14T12:46:16.767Z,12.00
2019-04-14T12:49:03.374Z,11.60
2019-04-14T12:51:58.910Z,11.50
2019-04-14T12:54:27.079Z,11.60
2019-04-14T12:56:54.284Z,11.90
2019-04-14T12:59:23.392Z,12.10
2019-04-14T13:02:01.458Z,12.10
2019-04-14T13:04:28.438Z,12.30
2019-04-14T13:06:55.720Z,12.40
2019-04-14T13:09:22.959Z,12.50
2019-04-14T13:11:50.092Z,12.70
2019-04-14T13:14:17.260Z,12.90
2019-04-14T13:16:44.443Z,13.00
2019-04-14T13:19:11.664Z,13.20
2019-04-14T13:21:40.464Z,13.30
2019-04-14T13:24:07.564Z,13.20
2019-04-14T13:26:35.040Z,13.20
2019-04-14T13:29:02.453Z,13.10
2019-04-14T13:31:29.652Z,13.30
2019-04-14T13:33:56.885Z,13.50
2019-04-14T13:36:24.142Z,13.50
2019-04-14T13:38:51.402Z,13.50
2019-04-14T13:41:18.693Z,13.10
2019-04-14T13:43:45.967Z,12.80
2019-04-14T13:46:13.299Z,12.40
2019-04-14T13:48:40.650Z,12.10
2019-04-14T13:51:07.944Z,12.10
2019-04-14T13:53:35.045Z,12.10
2019-04-14T13:56:02.331Z,12.00
2019-04-14T13:58:29.209Z,12.00
2019-04-14T14:00:56.454Z,12.00
2019-04-14T14:03:23.718Z,12.10
2019-04-14T14:05:50.728Z,12.10
2019-04-14T14:08:18.193Z,12.30
2019-04-14T14:10:45.502Z,12.10
2019-04-14T14:13:30.938Z,12.20
2019-04-14T14:16:33.125Z,12.40
2019-04-14T14:19:28.733Z,12.60
2019-04-14T14:22:15.434Z,12.80
2019-04-14T14:24:57.089Z,13.00
2019-04-14T14:27:24.414Z,13.10
2019-04-14T14:29:51.541Z,13.30
2019-04-14T14:32:33.306Z,13.30
2019-04-14T14:35:00.616Z,13.30
2019-04-14T14:37:27.824Z,13.10
2019-04-14T14:39:55.025Z,12.50
2019-04-14T14:42:22.462Z,12.30
2019-04-14T14:45:09.221Z,12.10
2019-04-14T14:47:36.664Z,12.20
2019-04-14T14:50:28.635Z,12.10
2019-04-14T14:52:55.929Z,12.00
2019-04-14T14:55:23.170Z,11.90
2019-04-14T14:57:50.383Z,11.80
2019-04-14T15:00:27.697Z,11.90
2019-04-14T15:02:54.590Z,11.80
2019-04-14T15:05:21.907Z,11.80
2019-04-14T15:07:49.235Z,11.90
2019-04-14T15:10:16.780Z,11.90
2019-04-14T15:12:44.328Z,11.80
2019-04-14T15:15:11.409Z,11.90
2019-04-14T15:17:38.688Z,12.00
2019-04-14T15:20:05.839Z,12.10
2019-04-14T15:22:32.962Z,12.20
2019-04-14T15:25:00.213Z,12.20
2019-04-14T15:27:27.461Z,12.20
2019-04-14T15:29:54.739Z,12.20
2019-04-14T15:32:22.004Z,12.30
2019-04-14T15:34:49.227Z,12.40
2019-04-14T15:37:16.499Z,12.40
2019-04-14T15:39:43.767Z,12.40
2019-04-14T15:42:11.166Z,12.20
2019-04-14T15:44:38.429Z,12.10
2019-04-14T15:47:05.664Z,12.10
2019-04-14T15:49:32.927Z,12.10
2019-04-14T15:52:00.163Z,12.10
2019-04-14T15:54:27.424Z,12.20
2019-04-14T15:57:05.142Z,12.30
2019-04-14T16:00:03.723Z,12.20
2019-04-14T16:02:42.201Z,12.20
2019-04-14T16:05:31.540Z,12.30
2019-04-14T16:08:04.461Z,12.20
2019-04-14T16:10:48.254Z,12.00
2019-04-14T16:13:23.407Z,12.00
2019-04-14T16:15:56.008Z,12.00
2019-04-14T16:18:51.655Z,12.10
2019-04-14T16:21:18.905Z,12.10
2019-04-14T16:23:50.705Z,12.10
2019-04-14T16:26:44.080Z,12.00
2019-04-14T16:29:20.681Z,12.00
2019-04-14T16:32:25.574Z,12.10
2019-04-14T16:34:56.125Z,12.30
2019-04-14T16:37:23.445Z,12.50
2019-04-14T16:39:50.851Z,12.60
2019-04-14T16:42:18.168Z,12.60
2019-04-14T16:44:45.420Z,12.50
2019-04-14T16:47:12.689Z,12.30
2019-04-14T16:49:39.999Z,12.30
2019-04-14T16:52:45.055Z,12.30
2019-04-14T16:55:35.494Z,12.30
2019-04-14T16:58:26.400Z,12.30
2019-04-14T17:01:06.533Z,12.10
2019-04-14T17:03:33.838Z,12.00
2019-04-14T17:06:01.127Z,12.00
2019-04-14T17:08:28.373Z,11.90
2019-04-14T17:10:55.644Z,11.80
2019-04-14T17:13:24.904Z,11.80
2019-04-14T17:16:20.480Z,11.80
2019-04-14T17:19:09.784Z,11.80
2019-04-14T17:21:49.493Z,11.70
2019-04-14T17:24:51.629Z,11.60
2019-04-14T17:27:23.312Z,11.60
2019-04-14T17:30:01.398Z,11.60
2019-04-14T17:32:48.184Z,11.60
2019-04-14T17:35:30.563Z,11.50
2019-04-14T17:38:03.557Z,11.50
2019-04-14T17:40:59.318Z,11.40
2019-04-14T17:43:46.103Z,11.30
2019-04-14T17:46:31.757Z,11.20
2019-04-14T17:49:14.612Z,11.20
2019-04-14T17:51:47.426Z,11.10
2019-04-14T17:54:29.064Z,11.10
2019-04-14T17:57:09.508Z,11.00
2019-04-14T17:59:42.135Z,10.90
2019-04-14T18:02:20.149Z,10.90
2019-04-14T18:05:03.830Z,10.80
2019-04-14T18:07:39.221Z,10.70
2019-04-14T18:10:39.188Z,10.60
2019-04-14T18:13:25.948Z,10.60
2019-04-14T18:16:01.663Z,10.50
2019-04-14T18:18:46.954Z,10.40
2019-04-14T18:21:14.196Z,10.40
2019-04-14T18:23:41.461Z,10.30
2019-04-14T18:26:08.888Z,10.20
2019-04-14T18:28:47.294Z,10.10
2019-04-14T18:31:25.501Z,10.10
2019-04-14T18:34:05.483Z,10.00
2019-04-14T18:36:52.095Z,10.00
2019-04-14T18:39:38.763Z,10.10
2019-04-14T18:42:19.057Z,10.10
2019-04-14T18:44:55.184Z,10.00
2019-04-14T18:47:25.889Z,9.90
2019-04-14T18:50:24.548Z,9.90
2019-04-14T18:53:01.492Z,9.90
2019-04-14T18:55:49.844Z,9.90
2019-04-14T18:58:39.699Z,9.80
2019-04-14T19:01:13.153Z,9.70
2019-04-14T19:03:40.467Z,9.80
2019-04-14T19:06:08.001Z,9.70
2019-04-14T19:08:35.347Z,9.60
2019-04-14T19:11:21.015Z,9.50
2019-04-14T19:13:49.102Z,9.50
2019-04-14T19:16:20.554Z,9.60
2019-04-14T19:18:50.608Z,9.60
2019-04-14T19:21:20.679Z,9.50
2019-04-14T19:23:48.123Z,9.50
2019-04-14T19:26:15.555Z,9.50
2019-04-14T19:28:43.160Z,9.50
2019-04-14T19:31:10.466Z,9.50
2019-04-14T19:33:37.759Z,9.50
2019-04-14T19:36:05.883Z,9.50
2019-04-14T19:38:33.170Z,9.40
2019-04-14T19:41:00.567Z,9.40
2019-04-14T19:43:27.883Z,9.40
2019-04-14T19:45:56.533Z,9.30
2019-04-14T19:48:24.120Z,9.30
2019-04-14T19:50:51.442Z,9.10
2019-04-14T19:53:18.672Z,9.00
2019-04-14T19:55:45.948Z,8.90
2019-04-14T19:58:13.245Z,8.80
2019-04-14T20:00:40.624Z,8.80
2019-04-14T20:03:07.876Z,8.80
2019-04-14T20:05:35.076Z,8.80
2019-04-14T20:08:02.324Z,8.80
2019-04-14T20:10:29.404Z,8.80
2019-04-14T20:12:56.498Z,8.80
2019-04-14T20:15:29.303Z,8.70
2019-04-14T20:18:02.516Z,8.80
2019-04-14T20:20:55.114Z,8.80
2019-04-14T20:23:47.756Z,8.80
2019-04-14T20:26:33.227Z,8.60
2019-04-14T20:29:03.774Z,8.60
2019-04-14T20:31:56.800Z,8.60
2019-04-14T20:34:24.027Z,8.60
2019-04-14T20:36:51.281Z,8.60
2019-04-14T20:39:19.143Z,8.60
2019-04-14T20:41:46.504Z,8.60
2019-04-14T20:44:13.970Z,8.40
2019-04-14T20:46:41.124Z,8.40
2019-04-14T20:49:08.810Z,8.40
2019-04-14T20:51:36.156Z,8.30
2019-04-14T20:54:03.493Z,8.20
2019-04-14T20:56:30.743Z,8.10
2019-04-14T20:58:57.981Z,8.10
2019-04-14T21:01:27.197Z,8.10
2019-04-14T21:04:13.939Z,8.10
2019-04-14T21:07:06.534Z,8.00
2019-04-14T21:09:38.740Z,7.90
2019-04-14T21:12:20.514Z,7.80
2019-04-14T21:14:53.738Z,7.80
2019-04-14T21:17:40.445Z,7.70
2019-04-14T21:20:13.181Z,7.60
2019-04-14T21:22:52.944Z,7.50
2019-04-14T21:25:34.779Z,7.50
2019-04-14T21:28:20.263Z,7.40
2019-04-14T21:31:04.072Z,7.30
2019-04-14T21:33:49.208Z,7.30
2019-04-14T21:36:45.069Z,7.30
2019-04-14T21:39:43.788Z,7.20
2019-04-14T21:42:11.036Z,7.00
2019-04-14T21:44:38.280Z,7.00
2019-04-14T21:47:05.532Z,6.90
2019-04-14T21:49:32.785Z,6.90
2019-04-14T21:52:34.200Z,6.70
2019-04-14T21:55:01.962Z,6.70
2019-04-14T21:57:38.074Z,6.60
2019-04-14T22:00:34.966Z,6.50
2019-04-14T22:03:33.521Z,6.50
2019-04-14T22:06:16.517Z,6.50
2019-04-14T22:08:47.399Z,6.50
2019-04-14T22:11:22.460Z,6.50
2019-04-14T22:13:51.358Z,6.50
2019-04-14T22:16:18.838Z,6.50
2019-04-14T22:18:46.173Z,6.30
2019-04-14T22:21:13.514Z,6.30
2019-04-14T22:23:40.744Z,6.30
2019-04-14T22:26:08.135Z,6.30
2019-04-14T22:28:35.375Z,6.20
2019-04-14T22:31:02.633Z,6.20
2019-04-14T22:33:29.890Z,6.20
2019-04-14T22:35:57.167Z,6.20
2019-04-14T22:38:24.387Z,6.10
2019-04-14T22:40:51.683Z,6.10
2019-04-14T22:43:19.032Z,6.00
2019-04-14T22:45:46.275Z,6.00
2019-04-14T22:48:13.426Z,6.00
2019-04-14T22:50:40.786Z,5.90
2019-04-14T22:53:08.076Z,5.80
2019-04-14T22:55:35.411Z,5.80
2019-04-14T22:58:02.665Z,5.80
2019-04-14T23:00:48.242Z,5.70
2019-04-14T23:03:49.875Z,5.70
2019-04-14T23:06:37.832Z,5.60
2019-04-14T23:09:25.136Z,5.60
2019-04-14T23:12:12.132Z,5.60
2019-04-14T23:15:01.519Z,5.50
2019-04-14T23:17:51.240Z,5.50
2019-04-14T23:20:33.396Z,5.40
2019-04-14T23:23:28.786Z,5.40
2019-04-14T23:25:56.156Z,5.30
2019-04-14T23:28:23.398Z,5.30
2019-04-14T23:30:50.669Z,5.30
2019-04-14T23:33:17.964Z,5.30
2019-04-14T23:35:45.257Z,5.20
2019-04-14T23:38:12.541Z,5.20
2019-04-14T23:40:39.812Z,5.20
2019-04-14T23:43:07.431Z,5.20
2019-04-14T23:45:34.652Z,5.20
2019-04-14T23:48:01.952Z,5.20
2019-04-14T23:50:29.324Z,5.00
2019-04-14T23:52:56.611Z,5.00
2019-04-14T23:55:23.883Z,4.90
2019-04-14T23:57:51.185Z,4.80
